Forside
METAR-TAF:

METAR-TAF

Lufthavne :

West Plains Municipal Airport

West Plains, Missouri, USA

Breddekreds: 36-52-45N, længdekreds: 091-54-18W, højde: 374 m

Aktuelle vejr

Denne rapport blev lavet for 57 minutter siden, kl. 22:53 UTC
Vind 8 kt fra nord
Temperatur 0°C
Fugtighed 47%
Tryk 1026 hPa
Sigt: 16.1 km
Brudte skyer i en højde af 7000 ft
Brudte skyer i en højde af 9000 ft
Overskyet i en højde af 11000 ft

METAR: KUNO 142253Z AUTO 01008KT 10SM BKN070 BKN090 OVC110 00/M10 A3029 RMK AO2 SLP271 T00001100

Tid: 17:50 (23:50 UTC)


TAF: fraværende

Vejrobservationer og prognoser fra mere end 4000 lufthavne (METAR og TAF).

De gule og røde prikker repræsenterer de meteorologiske stationer.

Flyt musen over at se navnet på stationen.

Så klik over at se vejr observationer og prognoser.

At skifte det kort: Klik på de grønne knapper med et sort kors for at zoome ind; på den grønne knap med en bindestreg for at zoome ud; eller på de grønne pile for tilstødende kort.


METAR-TAF: